Share

Raasta, Sweden

8:55 AM CEST on April 24, 2014 (GMT +0200)
Gudmundsbyn (IYSUNDSV2) Elev 259 ft | 62.44 °N, 17.26 °E | Change Station

Current weather conditions updated 3 seconds ago

Clear
Clear
44.0 °F
Feels Like 44 °F
N
2.0
Wind Variable Wind from WNW
Gusts 6.0 mph
Sunrise 4:57 AM
Sunset 8:42 PM
Moon Waning Crescent

Today is forecast to be Much Warmer than yesterday.

Pressure 30.57 in
Visibility -9999.0 miles
Clouds
Windchill 44 °F
Dew Point 10 °F
Humidity 25%
Rainfall 0.00 in
Snow Depth Not available.
UV Not available.
Pollen Not available.
Air Quality Not available.
Flu Activity Not available.
METAR ESNN 240650Z VRB02KT CAVOK 03/M05 Q1035

More Conditions Fewer Conditions

Pressure 30.57 in
Visibility -9999.0 miles
Clouds
Windchill 44 °F
Dew Point 10 °F
Humidity 25%
Rainfall 0.00 in
Snow Depth Not available.
UV Not available.
Pollen Not available.
Air Quality Not available.
Flu Activity Not available.
METAR ESNN 240650Z VRB02KT CAVOK 03/M05 Q1035

More Conditions Fewer Conditions

10-Day Weather Forecast

Almanac

Astronomy

Apr. 24, 2014 Rise Set
Actual Time 4:57 AM CEST 8:42 PM CEST
Civil Twilight 4:01 AM CEST 9:38 PM CEST
Nautical Twilight 2:34 AM CEST 11:08 PM CEST
Astronomical Twilight Sun does not rise Sun does not rise
Moon 3:37 AM CEST 2:04 PM CEST
Length of Visible Light 17h 36m
Length of Day
15h 44m
Tomorrow will be 6m 2s longer.
Waning Crescent, 28% of the Moon is Illuminated
Today
Waning Crescent
Apr 29
New
May 6
First Quarter
May 14
Full
May 21
Last Quarter

Yesterday's Extremes

Country Highs Country Lows

Community

  • Stacked
    Stacked
  • clouds approaching Red Sox Nation
    clouds approaching Red Sox Nation
  • Balance
    Balance
  • Nestled In
    Nestled In
  • Stunning Sunrise
    Stunning Sunrise

WunderPhotos

Upload Photos

1,704,569 photos uploaded!

WunderBlogs® & News

Nearby

Snow Depth

Not available.

Coastal Water Temperatures

Place Temperature
No Stations Reporting

Earthquake Activity

City Distance Mag. Time & Date
No recent earthquake activity has been reported nearby.
Minimum magnitude displayed is 2.5.

Nearby Weather Stations

Station Location Temp. Windchill Dew Point Humidity Wind Precip. Elev Updated Type
Gudmundsbyn, Sundsvall 44.0 °F 44 °F 10 °F 25% WNW  at  2.0 mph 0.00 in / hr 259 ft 8:55 AM CEST Normal
Bruddalen, Kovland 29.8 °F 30 °F 24 °F 79% West  at  0.0 mph 0.00 in / hr 348 ft 8:05 AM CEST Normal

Show More Stations Show Fewer Stations

What do you think?

We're not finished. Please let us know what you like, what you don't like, and what you are still missing.